»·PEaware :: SWA1968 KDAL-KPHX

SWA1968 :: KDAL-KPHX

FLIGHT INFORMATION

Flight Status: Arrived
Operator:
Southwest Airlines
More flights by this operator :: More flights under this callsign
Pilot: Kevin D. (15651)
Aircraft: BOEING 737-800
(B738)
More flights by this aircraft type
Origin: KDAL Dallas Love
United States
Destination: KPHX Phoenix Sky Harbor Intl
United States
More flights between these airports :: More routes between these airports
Route: KKITY4 CIKAN EWM DRRVR PINNG1
File this flight plan on PilotEdge
Remarks:
Altitude:
(Current/Filed)
38,000ft
Speed:
(Current/Filed)
550kts
Departed: 26-Sep-17 03:47 PM
Arrived: 26-Sep-17 06:14 PM
Distance/Time
Traveled:
761nm/2:27
Distance/Time
To Go:
Arrived

Flight Plot

Page will automatically refresh every two minutes.

Flight plan parsing failed; only flown route is shown


Map Options




Map Legend


Flown Route
Filed Route
Departure Airport
Arrival Airport
Navaid (VOR, NDB)
Fix

Horizontal Profiles

Position Reports

Time Latitude Longitude Heading Altitude Ground
Speed
26-Sep-17 15:28 32.845545 -96.848248 0 493ft 0kts
26-Sep-17 15:29 32.845545 -96.848248 0 493ft 0kts
26-Sep-17 15:30 32.845545 -96.848248 0 493ft 0kts
26-Sep-17 15:31 32.845545 -96.848248 0 493ft 0kts
26-Sep-17 15:32 32.845545 -96.848248 0 493ft 0kts
26-Sep-17 15:33 32.845545 -96.848248 0 493ft 0kts
26-Sep-17 15:34 32.845545 -96.848248 0 493ft 0kts
26-Sep-17 15:35 32.845545 -96.848248 0 493ft 0kts
26-Sep-17 15:36 32.845384 -96.848249 0 494ft 2kts
26-Sep-17 15:37 32.844976 -96.848383 54 493ft 1kts
26-Sep-17 15:38 32.844918 -96.848661 90 494ft 0kts
26-Sep-17 15:39 32.844918 -96.848660 90 494ft 0kts
26-Sep-17 15:40 32.844918 -96.848660 90 494ft 0kts
26-Sep-17 15:41 32.844918 -96.848660 90 494ft 0kts
26-Sep-17 15:42 32.844918 -96.848660 90 494ft 0kts
26-Sep-17 15:43 32.844918 -96.848633 90 494ft 1kts
26-Sep-17 15:44 32.845181 -96.847365 66 494ft 5kts
26-Sep-17 15:45 32.846133 -96.846253 12 493ft 12kts
26-Sep-17 15:46 32.847582 -96.848420 305 494ft 15kts
26-Sep-17 15:47 32.850010 -96.851422 306 494ft 20kts
26-Sep-17 15:48 32.853068 -96.854810 318 494ft 20kts
26-Sep-17 15:49 32.855707 -96.857671 320 493ft 18kts
26-Sep-17 15:50 32.856877 -96.856338 135 493ft 0kts
26-Sep-17 15:51 32.854512 -96.853581 135 494ft 78kts
26-Sep-17 15:52 32.837380 -96.833809 132 1017ft 166kts
26-Sep-17 15:53 32.817761 -96.811819 136 1982ft 201kts
26-Sep-17 15:54 32.785924 -96.778374 137 2595ft 266kts
26-Sep-17 15:55 32.743693 -96.732227 134 5033ft 269kts
26-Sep-17 15:56 32.686953 -96.712799 196 7430ft 283kts
26-Sep-17 15:57 32.631129 -96.747943 228 9670ft 292kts
26-Sep-17 15:58 32.615385 -96.813381 268 10824ft 328kts
26-Sep-17 15:59 32.615432 -96.875952 269 12279ft 336kts
26-Sep-17 16:00 32.615681 -96.950333 269 13989ft 342kts
26-Sep-17 16:01 32.615979 -97.044467 268 16070ft 353kts
26-Sep-17 16:02 32.616226 -97.146685 267 18545ft 361kts
26-Sep-17 16:03 32.616371 -97.250678 267 20804ft 370kts
26-Sep-17 16:04 32.621000 -97.357865 276 22844ft 383kts
26-Sep-17 16:05 32.637369 -97.466827 276 24763ft 391kts
26-Sep-17 16:06 32.654499 -97.579055 276 26558ft 398kts
26-Sep-17 16:07 32.670931 -97.686885 275 28609ft 390kts
26-Sep-17 16:08 32.672816 -97.794385 261 30394ft 375kts
26-Sep-17 16:09 32.664876 -97.902849 260 31988ft 368kts
26-Sep-17 16:10 32.656705 -98.007556 260 33339ft 363kts
26-Sep-17 16:11 32.648278 -98.113651 260 34532ft 358kts
26-Sep-17 16:12 32.639746 -98.219780 260 35498ft 357kts
26-Sep-17 16:13 32.630881 -98.329267 260 36396ft 355kts
26-Sep-17 16:14 32.621846 -98.439625 260 37120ft 355kts
26-Sep-17 16:15 32.612668 -98.550621 260 37759ft 355kts
26-Sep-17 16:16 32.603243 -98.663230 260 38013ft 359kts
26-Sep-17 16:17 32.593284 -98.780971 260 38020ft 369kts
26-Sep-17 16:18 32.583357 -98.897133 260 38019ft 379kts
26-Sep-17 16:19 32.572892 -99.019013 258 38018ft 389kts
26-Sep-17 16:20 32.561784 -99.145825 257 38038ft 400kts
26-Sep-17 16:21 32.550014 -99.278156 258 38040ft 409kts
26-Sep-17 16:22 32.540665 -99.409054 260 38044ft 409kts
26-Sep-17 16:23 32.532744 -99.541009 260 38042ft 409kts
26-Sep-17 16:24 32.524732 -99.672038 259 38048ft 409kts
26-Sep-17 16:25 32.516459 -99.805145 259 38047ft 409kts
26-Sep-17 16:26 32.508053 -99.938053 259 38046ft 408kts
26-Sep-17 16:27 32.499607 -100.069400 259 38045ft 408kts
26-Sep-17 16:28 32.491102 -100.199551 259 38067ft 408kts
26-Sep-17 16:29 32.482454 -100.330087 259 38095ft 408kts
26-Sep-17 16:30 32.474034 -100.457797 259 38096ft 408kts
26-Sep-17 16:31 32.465407 -100.586616 259 38095ft 408kts
26-Sep-17 16:32 32.456521 -100.717218 259 38096ft 408kts
26-Sep-17 16:33 32.447643 -100.846168 258 38095ft 406kts
26-Sep-17 16:34 32.438660 -100.974934 257 38092ft 399kts
26-Sep-17 16:35 32.429500 -101.103282 257 38089ft 396kts
26-Sep-17 16:36 32.420268 -101.230864 257 38087ft 396kts
26-Sep-17 16:37 32.410887 -101.359038 257 38086ft 396kts
26-Sep-17 16:38 32.401391 -101.487043 257 38085ft 396kts
26-Sep-17 16:39 32.392012 -101.611745 257 38084ft 396kts
26-Sep-17 16:40 32.382396 -101.737920 256 38091ft 395kts
26-Sep-17 16:41 32.372515 -101.865867 256 38084ft 395kts
26-Sep-17 16:42 32.362560 -101.993093 256 38072ft 395kts
26-Sep-17 16:43 32.352363 -102.121707 256 38069ft 395kts
26-Sep-17 16:44 32.342498 -102.244564 256 38068ft 395kts
26-Sep-17 16:45 32.334051 -102.348593 256 38081ft 395kts
26-Sep-17 16:46 32.321927 -102.496065 256 38101ft 395kts
26-Sep-17 16:47 32.312989 -102.603465 256 38099ft 395kts
26-Sep-17 16:48 32.300361 -102.753288 256 38102ft 394kts
26-Sep-17 16:49 32.291269 -102.859879 256 38091ft 394kts
26-Sep-17 16:50 32.280225 -102.988027 256 38078ft 394kts
26-Sep-17 16:51 32.269113 -103.115786 255 38070ft 391kts
26-Sep-17 16:52 32.257942 -103.242162 255 38061ft 388kts
26-Sep-17 16:53 32.246649 -103.368269 255 38054ft 389kts
26-Sep-17 16:54 32.235215 -103.494834 255 38049ft 388kts
26-Sep-17 16:55 32.221766 -103.641911 255 38055ft 388kts
26-Sep-17 16:56 32.212118 -103.746255 254 38070ft 388kts
26-Sep-17 16:57 32.200337 -103.872425 254 38068ft 388kts
26-Sep-17 16:58 32.188443 -103.998425 254 38067ft 388kts
26-Sep-17 16:59 32.176577 -104.122815 254 38065ft 388kts
26-Sep-17 17:00 32.164848 -104.244492 254 38064ft 388kts
26-Sep-17 17:01 32.153060 -104.365561 254 38062ft 387kts
26-Sep-17 17:02 32.140918 -104.488999 254 38060ft 387kts
26-Sep-17 17:03 32.128693 -104.612046 254 38059ft 387kts
26-Sep-17 17:04 32.116228 -104.736217 254 38068ft 387kts
26-Sep-17 17:05 32.103723 -104.859601 254 38067ft 387kts
26-Sep-17 17:06 32.090999 -104.984329 253 38064ft 384kts
26-Sep-17 17:07 32.078201 -105.108241 252 38061ft 381kts
26-Sep-17 17:08 32.065393 -105.230526 252 38020ft 381kts
26-Sep-17 17:09 32.052530 -105.352522 252 37965ft 380kts
26-Sep-17 17:10 32.039454 -105.475561 252 37947ft 381kts
26-Sep-17 17:11 32.026335 -105.597764 252 37943ft 381kts
26-Sep-17 17:12 32.013366 -105.717511 252 37945ft 380kts
26-Sep-17 17:13 32.000631 -105.834024 252 37944ft 379kts
26-Sep-17 17:14 31.988433 -105.944705 252 37939ft 380kts
26-Sep-17 17:15 31.976220 -106.054694 252 37935ft 380kts
26-Sep-17 17:16 31.964266 -106.161470 252 37932ft 380kts
26-Sep-17 17:17 31.952838 -106.267711 258 37919ft 387kts
26-Sep-17 17:18 31.961761 -106.388432 264 37928ft 397kts
26-Sep-17 17:19 31.972401 -106.514960 264 37927ft 397kts
26-Sep-17 17:20 31.982709 -106.638347 263 37984ft 402kts
26-Sep-17 17:21 31.991858 -106.748831 263 37998ft 401kts
26-Sep-17 17:22 32.002416 -106.878376 263 38005ft 403kts
26-Sep-17 17:23 32.013002 -107.009649 264 38003ft 405kts
26-Sep-17 17:24 32.023493 -107.141002 265 38007ft 408kts
26-Sep-17 17:25 32.033735 -107.271139 264 38010ft 406kts
26-Sep-17 17:26 32.043938 -107.402481 264 37980ft 406kts
26-Sep-17 17:27 32.054001 -107.533860 264 37955ft 406kts
26-Sep-17 17:28 32.063493 -107.659580 264 37966ft 407kts
26-Sep-17 17:29 32.072889 -107.785642 264 37968ft 405kts
26-Sep-17 17:30 32.082598 -107.917761 264 37962ft 405kts
26-Sep-17 17:31 32.092092 -108.048864 264 37964ft 404kts
26-Sep-17 17:32 32.101055 -108.174416 264 37987ft 406kts
26-Sep-17 17:33 32.110100 -108.302857 264 38014ft 405kts
26-Sep-17 17:34 32.119253 -108.434828 264 38033ft 405kts
26-Sep-17 17:35 32.128184 -108.565582 264 38031ft 405kts
26-Sep-17 17:36 32.135222 -108.670084 263 38041ft 404kts
26-Sep-17 17:37 32.142210 -108.774994 263 38036ft 405kts
26-Sep-17 17:38 32.150678 -108.904219 263 38037ft 404kts
26-Sep-17 17:39 32.159087 -109.035262 264 38023ft 407kts
26-Sep-17 17:40 32.167111 -109.162056 266 37973ft 411kts
26-Sep-17 17:41 32.177092 -109.295681 274 37935ft 421kts
26-Sep-17 17:42 32.203981 -109.425298 276 37932ft 423kts
26-Sep-17 17:43 32.231692 -109.556580 276 37894ft 422kts
26-Sep-17 17:44 32.256811 -109.675971 276 37876ft 422kts
26-Sep-17 17:45 32.278704 -109.780522 276 37883ft 422kts
26-Sep-17 17:46 32.304156 -109.902621 275 37883ft 422kts
26-Sep-17 17:47 32.330246 -110.027807 275 37721ft 381kts
26-Sep-17 17:48 32.353479 -110.140614 274 36154ft 354kts
26-Sep-17 17:49 32.375954 -110.250780 274 34567ft 367kts
26-Sep-17 17:50 32.399253 -110.364683 275 32899ft 366kts
26-Sep-17 17:51 32.422355 -110.478457 275 31244ft 376kts
26-Sep-17 17:52 32.444706 -110.588927 276 29638ft 381kts
26-Sep-17 17:53 32.465134 -110.689419 279 28184ft 389kts
26-Sep-17 17:54 32.511747 -110.783755 296 26535ft 409kts
26-Sep-17 17:55 32.566944 -110.881094 297 24911ft 404kts
26-Sep-17 17:56 32.622358 -110.978332 299 23413ft 397kts
26-Sep-17 17:57 32.680355 -111.080202 300 21678ft 388kts
26-Sep-17 17:58 32.737673 -111.181061 301 19957ft 374kts
26-Sep-17 17:59 32.793405 -111.279520 301 18286ft 369kts
26-Sep-17 18:00 32.848952 -111.377940 302 16829ft 361kts
26-Sep-17 18:01 32.898228 -111.465226 305 15419ft 321kts
26-Sep-17 18:02 32.960923 -111.511157 336 14174ft 324kts
26-Sep-17 18:03 33.031381 -111.546756 337 12878ft 310kts
26-Sep-17 18:04 33.096274 -111.578809 338 11556ft 303kts
26-Sep-17 18:05 33.135928 -111.598448 338 10835ft 296kts
26-Sep-17 18:06 33.201544 -111.630906 339 9623ft 285kts
26-Sep-17 18:07 33.244883 -111.653840 335 9048ft 249kts
26-Sep-17 18:08 33.288684 -111.679761 333 8164ft 249kts
26-Sep-17 18:09 33.339164 -111.710614 333 6517ft 258kts
26-Sep-17 18:10 33.373065 -111.728773 333 5574ft 265kts
26-Sep-17 18:11 33.411360 -111.759967 297 4981ft 235kts
26-Sep-17 18:12 33.425697 -111.813951 284 4179ft 208kts
26-Sep-17 18:13 33.428526 -111.862532 270 3410ft 177kts
26-Sep-17 18:14 33.428697 -111.904599 270 2693ft 146kts
26-Sep-17 18:15 33.428651 -111.939608 270 2166ft 139kts
26-Sep-17 18:16 33.428777 -111.971625 272 1662ft 136kts
26-Sep-17 18:17 33.428843 -112.002730 271 1192ft 148kts
26-Sep-17 18:18 33.429309 -112.021781 333 1142ft 10kts
26-Sep-17 18:19 33.429431 -112.021832 344 1142ft 3kts
26-Sep-17 18:20 33.429948 -112.019664 90 1142ft 18kts
26-Sep-17 18:21 33.431582 -112.015676 0 1142ft 6kts
26-Sep-17 18:22 33.432185 -112.014980 97 1142ft 13kts
26-Sep-17 18:23 33.432140 -112.008927 90 1142ft 24kts
26-Sep-17 18:24 33.432129 -112.002657 89 1142ft 24kts
26-Sep-17 18:25 33.432797 -111.997954 19 1142ft 12kts
26-Sep-17 18:26 33.433934 -111.997773 30 1142ft 0kts
26-Sep-17 18:27 33.434035 -111.997397 83 1142ft 0kts
26-Sep-17 18:28 33.434038 -111.997369 83 1142ft 0kts
26-Sep-17 18:29 33.434038 -111.997369 83 1142ft 0kts
26-Sep-17 18:30 33.434038 -111.997369 83 1142ft 0kts

Navigation Log

Ident Type
Flight plan parsing failed, navigation log unavailable